Time;durP1;ratioP1;P1;durP2;ratioP2;P2;SDS_P1;SDS_P2;PMS_P1;PMS_P2;Temp;Humidity;BMP_temperature;BMP_pressure;BME280_temperature;BME280_humidity;BME280_pressure;Samples;Min_cycle;Max_cycle;Signal;HPM_P1;HPM_P2
2021/01/04 00:02:21;;;;;;;9.52;2.17;;;;;;;;;;5076868;28;20024;-40
2021/01/04 00:05:11;;;;;;;7.20;1.73;;;;;;;;;;5074421;28;20105;-40
2021/01/04 00:07:50;;;;;;;1.73;1.13;;;;;;;;;;5074584;28;20028;-40
2021/01/04 00:10:35;;;;;;;8.45;1.02;;;;;;;;;;5078436;28;20066;-39
2021/01/04 00:13:08;;;;;;;4.70;1.17;;;;;;;;;;5082111;28;20496;-41
2021/01/04 00:15:42;;;;;;;6.78;1.90;;;;;;;;;;5084407;28;20020;-40
2021/01/04 00:18:12;;;;;;;4.85;0.90;;;;;;;;;;5079058;28;20028;-44
2021/01/04 00:20:39;;;;;;;2.00;1.17;;;;;;;;;;5081138;28;20028;-42
2021/01/04 00:23:06;;;;;;;2.42;1.30;;;;;;;;;;5071966;28;20032;-42
2021/01/04 00:25:36;;;;;;;2.85;1.10;;;;;;;;;;5073416;28;20028;-40
2021/01/04 00:28:11;;;;;;;3.92;1.30;;;;;;;;;;5085420;28;20016;-44
2021/01/04 00:30:58;;;;;;;2.28;0.85;;;;;;;;;;5078853;28;20036;-41
2021/01/04 00:33:36;;;;;;;3.38;1.10;;;;;;;;;;5075844;28;20024;-39
2021/01/04 00:36:05;;;;;;;4.72;1.30;;;;;;;;;;5072804;28;20021;-44
2021/01/04 00:38:45;;;;;;;4.03;1.38;;;;;;;;;;5078313;28;20177;-41
2021/01/04 00:41:25;;;;;;;3.20;1.25;;;;;;;;;;5074054;28;20048;-50
2021/01/04 00:43:57;;;;;;;3.60;1.33;;;;;;;;;;5079022;28;20031;-41
2021/01/04 00:46:28;;;;;;;8.00;1.60;;;;;;;;;;5075580;28;20016;-39
2021/01/04 00:48:55;;;;;;;3.70;1.15;;;;;;;;;;5060745;28;20031;-40
2021/01/04 00:51:31;;;;;;;1.70;1.00;;;;;;;;;;5076257;28;20009;-43
2021/01/04 00:53:58;;;;;;;2.97;1.45;;;;;;;;;;5082450;28;20141;-44
2021/01/04 00:56:31;;;;;;;2.75;0.82;;;;;;;;;;5077473;28;20483;-39
2021/01/04 00:59:09;;;;;;;2.67;1.10;;;;;;;;;;5065963;28;20033;-43
2021/01/04 01:01:38;;;;;;;1.95;1.15;;;;;;;;;;5079440;28;20463;-41
2021/01/04 01:04:10;;;;;;;1.63;1.00;;;;;;;;;;5079693;28;20099;-49
2021/01/04 01:06:52;;;;;;;2.57;1.10;;;;;;;;;;5082810;28;20044;-42
2021/01/04 01:09:19;;;;;;;5.43;1.33;;;;;;;;;;5084137;28;20035;-46
2021/01/04 01:12:04;;;;;;;1.35;0.90;;;;;;;;;;5084033;28;20055;-45
2021/01/04 01:14:42;;;;;;;3.17;1.30;;;;;;;;;;5082149;28;20448;-46
2021/01/04 01:17:09;;;;;;;2.15;0.90;;;;;;;;;;5077733;28;20180;-42
2021/01/04 01:19:47;;;;;;;3.95;1.02;;;;;;;;;;5084248;28;20113;-45
2021/01/04 01:22:24;;;;;;;2.97;1.08;;;;;;;;;;5077376;28;20456;-42
2021/01/04 01:24:52;;;;;;;2.08;0.80;;;;;;;;;;5089946;28;20044;-39
2021/01/04 01:27:37;;;;;;;2.90;1.33;;;;;;;;;;5081827;28;20020;-42
2021/01/04 01:30:04;;;;;;;3.65;1.30;;;;;;;;;;5083464;28;20093;-42
2021/01/04 01:32:31;;;;;;;4.03;1.30;;;;;;;;;;5077453;28;20024;-41
2021/01/04 01:35:16;;;;;;;1.67;1.20;;;;;;;;;;5083520;28;20388;-40
2021/01/04 01:38:03;;;;;;;4.03;1.20;;;;;;;;;;5081322;28;20106;-41
2021/01/04 01:40:58;;;;;;;3.28;1.10;;;;;;;;;;5079117;28;20036;-42
2021/01/04 01:43:25;;;;;;;2.40;1.10;;;;;;;;;;5071547;28;20044;-43
2021/01/04 01:46:00;;;;;;;4.43;1.60;;;;;;;;;;5075534;28;20078;-40
2021/01/04 01:48:33;;;;;;;1.98;1.00;;;;;;;;;;5085676;28;20165;-42
2021/01/04 01:51:02;;;;;;;3.80;1.20;;;;;;;;;;5077424;28;20029;-43
2021/01/04 01:53:39;;;;;;;2.28;0.98;;;;;;;;;;5083656;28;20352;-41
2021/01/04 01:56:28;;;;;;;2.05;0.80;;;;;;;;;;5077646;28;20024;-39
2021/01/04 01:59:07;;;;;;;1.90;1.00;;;;;;;;;;5084029;28;20039;-39
2021/01/04 02:01:43;;;;;;;2.35;0.80;;;;;;;;;;5083753;28;20115;-40
2021/01/04 02:04:13;;;;;;;1.75;0.80;;;;;;;;;;5085372;28;20059;-41
2021/01/04 02:06:40;;;;;;;4.88;1.35;;;;;;;;;;5081774;28;20024;-40
2021/01/04 02:09:16;;;;;;;2.20;0.82;;;;;;;;;;5085232;28;20497;-42
2021/01/04 02:11:52;;;;;;;2.97;1.30;;;;;;;;;;5088668;28;20024;-40
2021/01/04 02:14:37;;;;;;;2.90;0.98;;;;;;;;;;5073848;28;20540;-40
2021/01/04 02:17:26;;;;;;;4.70;0.85;;;;;;;;;;5084838;28;20039;-40
2021/01/04 02:20:05;;;;;;;5.75;0.93;;;;;;;;;;5081359;28;20036;-42
2021/01/04 02:22:47;;;;;;;3.28;1.33;;;;;;;;;;5077189;28;20050;-40
2021/01/04 02:25:14;;;;;;;2.97;1.13;;;;;;;;;;5084751;28;20476;-40
2021/01/04 02:27:45;;;;;;;2.58;1.30;;;;;;;;;;5085294;28;20036;-42
2021/01/04 02:30:12;;;;;;;2.40;1.00;;;;;;;;;;5085489;28;20019;-46
2021/01/04 02:32:43;;;;;;;3.03;1.08;;;;;;;;;;5083247;28;20062;-48
2021/01/04 02:35:11;;;;;;;3.13;1.10;;;;;;;;;;5084153;28;20107;-51
2021/01/04 02:37:38;;;;;;;0.80;0.75;;;;;;;;;;5081355;28;20028;-45
2021/01/04 02:40:07;;;;;;;2.03;0.77;;;;;;;;;;5082100;28;20036;-42
2021/01/04 02:42:36;;;;;;;1.40;0.80;;;;;;;;;;5084898;28;20052;-46
2021/01/04 02:45:08;;;;;;;2.72;0.95;;;;;;;;;;5082188;28;20012;-45
2021/01/04 02:47:35;;;;;;;;;;;;;;;;;;5084619;28;20028;-41
2021/01/04 02:50:11;;;;;;;5.03;1.02;;;;;;;;;;5081848;28;19930;-46
2021/01/04 02:52:57;;;;;;;2.08;0.90;;;;;;;;;;5081073;28;20364;-42
2021/01/04 02:55:28;;;;;;;3.17;1.00;;;;;;;;;;5084971;28;20012;-44
2021/01/04 02:57:59;;;;;;;5.87;1.20;;;;;;;;;;5087949;28;20054;-45
2021/01/04 03:00:27;;;;;;;1.92;0.75;;;;;;;;;;5077446;28;20029;-42
2021/01/04 03:02:58;;;;;;;2.67;0.80;;;;;;;;;;5074664;28;20070;-44
2021/01/04 03:05:26;;;;;;;3.70;1.02;;;;;;;;;;5077992;28;20026;-41
2021/01/04 03:07:55;;;;;;;3.83;1.10;;;;;;;;;;5094535;28;20070;-47
2021/01/04 03:10:40;;;;;;;3.08;0.98;;;;;;;;;;5094686;28;20020;-42
2021/01/04 03:13:45;;;;;;;1.55;0.80;;;;;;;;;;5094662;28;20059;-41
2021/01/04 03:16:15;;;;;;;2.40;0.98;;;;;;;;;;5032121;28;20030;-45
2021/01/04 03:18:48;;;;;;;4.35;1.13;;;;;;;;;;5032250;28;20029;-40
2021/01/04 03:21:16;;;;;;;3.33;0.88;;;;;;;;;;5055105;28;20036;-42
2021/01/04 03:23:50;;;;;;;4.38;0.80;;;;;;;;;;5073936;28;20024;-42
2021/01/04 03:26:27;;;;;;;5.30;1.10;;;;;;;;;;5074045;28;20063;-42
2021/01/04 03:28:54;;;;;;;5.68;0.60;;;;;;;;;;5074033;28;20016;-47
2021/01/04 03:31:21;;;;;;;1.40;0.70;;;;;;;;;;5073972;28;20032;-42
2021/01/04 03:33:48;;;;;;;2.83;0.73;;;;;;;;;;5073624;28;20024;-42
2021/01/04 03:36:16;;;;;;;5.60;0.70;;;;;;;;;;5073699;28;20031;-41
2021/01/04 03:38:43;;;;;;;2.42;0.70;;;;;;;;;;5073826;28;20029;-41
2021/01/04 03:41:10;;;;;;;5.05;0.95;;;;;;;;;;5073336;28;20029;-42
2021/01/04 03:43:38;;;;;;;4.88;0.80;;;;;;;;;;5073646;28;20029;-42
2021/01/04 03:46:05;;;;;;;3.60;1.00;;;;;;;;;;5073832;28;20123;-41
2021/01/04 03:48:32;;;;;;;2.40;0.70;;;;;;;;;;5073421;28;20019;-41
2021/01/04 03:50:59;;;;;;;2.58;0.77;;;;;;;;;;5073253;28;20055;-42
2021/01/04 03:53:26;;;;;;;2.13;0.80;;;;;;;;;;5073610;28;20055;-42
2021/01/04 03:55:53;;;;;;;2.08;0.63;;;;;;;;;;5073443;28;20031;-43
2021/01/04 03:58:20;;;;;;;6.13;0.75;;;;;;;;;;5073285;28;20016;-44
2021/01/04 04:00:47;;;;;;;2.05;1.00;;;;;;;;;;5072877;28;20032;-43
2021/01/04 04:03:14;;;;;;;4.97;0.93;;;;;;;;;;5072905;28;20376;-42
2021/01/04 04:05:41;;;;;;;1.60;0.73;;;;;;;;;;5073231;28;20016;-42
2021/01/04 04:08:08;;;;;;;2.25;0.73;;;;;;;;;;5073244;28;20159;-43
2021/01/04 04:10:35;;;;;;;2.33;0.95;;;;;;;;;;5073116;28;20017;-41
2021/01/04 04:13:02;;;;;;;2.78;0.52;;;;;;;;;;5073057;28;20107;-43
2021/01/04 04:15:29;;;;;;;1.40;0.57;;;;;;;;;;5073049;28;20412;-40
2021/01/04 04:17:56;;;;;;;1.92;0.65;;;;;;;;;;5055324;28;20365;-41
2021/01/04 04:20:24;;;;;;;1.50;0.50;;;;;;;;;;5072737;28;20035;-44
2021/01/04 04:22:52;;;;;;;1.48;0.85;;;;;;;;;;5072990;28;20419;-40
2021/01/04 04:25:20;;;;;;;2.00;0.60;;;;;;;;;;5073077;28;20036;-44
2021/01/04 04:27:47;;;;;;;3.25;1.20;;;;;;;;;;5073130;28;20384;-42
2021/01/04 04:30:16;;;;;;;2.70;1.02;;;;;;;;;;5072824;28;20099;-42
2021/01/04 04:32:43;;;;;;;3.85;0.60;;;;;;;;;;5072838;28;20184;-41
2021/01/04 04:35:11;;;;;;;2.85;0.80;;;;;;;;;;5072800;28;20021;-41
2021/01/04 04:37:41;;;;;;;2.65;0.82;;;;;;;;;;5072532;28;20012;-42
2021/01/04 04:40:08;;;;;;;3.33;0.75;;;;;;;;;;5072613;28;20054;-45
2021/01/04 04:42:38;;;;;;;3.13;1.05;;;;;;;;;;5072357;28;20071;-42
2021/01/04 04:45:06;;;;;;;3.30;0.90;;;;;;;;;;5072547;28;20036;-42
2021/01/04 04:47:56;;;;;;;1.85;0.88;;;;;;;;;;5072654;28;20095;-42
2021/01/04 04:50:50;;;;;;;3.25;0.88;;;;;;;;;;5044117;28;20044;-42
2021/01/04 04:53:35;;;;;;;1.60;0.50;;;;;;;;;;5072472;28;20032;-43
2021/01/04 04:56:20;;;;;;;1.90;0.88;;;;;;;;;;5072564;28;20028;-42
2021/01/04 04:58:50;;;;;;;1.92;0.77;;;;;;;;;;5072459;28;20480;-41
2021/01/04 05:01:24;;;;;;;4.45;0.82;;;;;;;;;;5072381;28;20388;-43
2021/01/04 05:04:04;;;;;;;1.77;0.70;;;;;;;;;;5072608;28;20019;-41
2021/01/04 05:06:39;;;;;;;4.38;0.73;;;;;;;;;;5072349;28;20025;-42
2021/01/04 05:09:24;;;;;;;2.83;0.93;;;;;;;;;;5072517;28;20020;-41
2021/01/04 05:12:11;;;;;;;4.75;0.75;;;;;;;;;;5072466;28;20029;-43
2021/01/04 05:14:41;;;;;;;4.22;0.80;;;;;;;;;;5078810;28;20086;-41
2021/01/04 05:17:14;;;;;;;1.17;0.63;;;;;;;;;;5078856;28;20031;-41
2021/01/04 05:19:44;;;;;;;1.65;0.90;;;;;;;;;;5078934;28;20108;-41
2021/01/04 05:22:29;;;;;;;2.28;0.80;;;;;;;;;;5078941;28;20030;-42
2021/01/04 05:25:08;;;;;;;4.40;1.10;;;;;;;;;;5078892;28;20019;-41
2021/01/04 05:27:48;;;;;;;1.65;0.70;;;;;;;;;;5078787;28;20113;-42
2021/01/04 05:30:15;;;;;;;3.38;0.85;;;;;;;;;;5078835;28;20096;-42
2021/01/04 05:32:45;;;;;;;3.63;1.13;;;;;;;;;;5078808;28;20486;-41
2021/01/04 05:35:14;;;;;;;4.13;0.77;;;;;;;;;;5078937;28;20028;-42
2021/01/04 05:37:43;;;;;;;2.78;0.70;;;;;;;;;;5078673;28;20433;-41
2021/01/04 05:40:28;;;;;;;4.43;0.82;;;;;;;;;;5078399;28;20400;-41
2021/01/04 05:43:07;;;;;;;4.25;1.23;;;;;;;;;;5078619;28;20045;-41
2021/01/04 05:45:37;;;;;;;2.30;0.70;;;;;;;;;;5078747;28;20157;-42
2021/01/04 05:48:10;;;;;;;3.35;0.70;;;;;;;;;;5078725;28;20070;-41
2021/01/04 05:50:55;;;;;;;1.83;0.73;;;;;;;;;;5078657;28;20143;-40
2021/01/04 05:53:23;;;;;;;5.05;1.02;;;;;;;;;;5078672;28;20032;-42
2021/01/04 05:56:00;;;;;;;1.73;0.68;;;;;;;;;;5078650;28;20020;-47
2021/01/04 05:58:30;;;;;;;2.17;0.60;;;;;;;;;;5078367;28;20380;-53
2021/01/04 06:01:07;;;;;;;2.35;0.90;;;;;;;;;;5078589;28;20025;-56
2021/01/04 06:03:34;;;;;;;3.53;0.82;;;;;;;;;;5077404;28;20073;-55
2021/01/04 06:06:08;;;;;;;3.97;1.00;;;;;;;;;;5078554;28;20020;-46
2021/01/04 06:08:35;;;;;;;3.70;0.60;;;;;;;;;;5078426;28;20487;-56
2021/01/04 06:11:10;;;;;;;2.63;0.90;;;;;;;;;;5078625;28;20016;-50
2021/01/04 06:13:42;;;;;;;2.05;0.52;;;;;;;;;;5078364;28;20051;-55
2021/01/04 06:16:10;;;;;;;2.78;0.70;;;;;;;;;;5078476;28;20031;-53
2021/01/04 06:18:42;;;;;;;3.05;0.82;;;;;;;;;;5078311;28;20020;-56
2021/01/04 06:21:27;;;;;;;1.85;0.68;;;;;;;;;;5078398;28;20060;-54
2021/01/04 06:23:54;;;;;;;1.92;0.73;;;;;;;;;;5076954;28;20487;-56
2021/01/04 06:26:23;;;;;;;3.13;0.98;;;;;;;;;;5075011;28;20020;-56
2021/01/04 06:28:57;;;;;;;2.47;0.70;;;;;;;;;;5075121;28;20040;-56
2021/01/04 06:31:44;;;;;;;3.17;0.70;;;;;;;;;;5075021;28;20511;-56
2021/01/04 06:34:24;;;;;;;3.25;0.80;;;;;;;;;;5073591;28;20044;-56
2021/01/04 06:36:55;;;;;;;2.42;0.90;;;;;;;;;;5074964;28;20024;-55
2021/01/04 06:39:28;;;;;;;7.03;1.08;;;;;;;;;;5075003;28;20102;-55
2021/01/04 06:41:57;;;;;;;1.35;0.80;;;;;;;;;;5074788;28;20120;-55
2021/01/04 06:44:26;;;;;;;1.48;0.70;;;;;;;;;;5074576;28;20016;-56
2021/01/04 06:47:11;;;;;;;3.33;1.08;;;;;;;;;;5074933;28;20108;-51
2021/01/04 06:49:44;;;;;;;2.25;0.75;;;;;;;;;;5074672;28;20021;-56
2021/01/04 06:52:34;;;;;;;3.28;0.75;;;;;;;;;;5075016;28;20021;-54
2021/01/04 06:55:07;;;;;;;2.80;0.85;;;;;;;;;;5074878;28;20025;-56
2021/01/04 06:57:37;;;;;;;3.90;0.70;;;;;;;;;;5074752;28;20016;-54
2021/01/04 07:00:07;;;;;;;1.85;0.73;;;;;;;;;;5074386;28;20480;-54
2021/01/04 07:02:43;;;;;;;5.72;0.60;;;;;;;;;;5074438;28;20091;-55
2021/01/04 07:05:27;;;;;;;4.78;0.73;;;;;;;;;;5074436;28;20059;-51
2021/01/04 07:08:10;;;;;;;1.33;0.63;;;;;;;;;;5074451;28;20491;-51
2021/01/04 07:11:02;;;;;;;2.33;0.68;;;;;;;;;;5073272;28;20020;-45
2021/01/04 07:13:41;;;;;;;1.88;0.77;;;;;;;;;;5074339;28;20066;-42
2021/01/04 07:16:11;;;;;;;5.07;0.95;;;;;;;;;;5074481;28;20016;-43
2021/01/04 07:18:41;;;;;;;3.08;0.90;;;;;;;;;;5074241;28;20066;-43
2021/01/04 07:21:08;;;;;;;6.40;0.88;;;;;;;;;;5074138;28;20035;-47
2021/01/04 07:23:46;;;;;;;4.63;1.23;;;;;;;;;;5073994;28;20017;-47
2021/01/04 07:26:22;;;;;;;3.38;0.77;;;;;;;;;;5074045;28;20028;-46
2021/01/04 07:28:49;;;;;;;5.30;0.90;;;;;;;;;;5074265;28;20059;-43
2021/01/04 07:31:26;;;;;;;5.18;1.90;;;;;;;;;;5073851;28;20017;-42
2021/01/04 07:33:59;;;;;;;5.80;1.02;;;;;;;;;;5073842;28;20104;-41
2021/01/04 07:36:36;;;;;;;4.18;0.95;;;;;;;;;;5073625;28;20043;-45
2021/01/04 07:39:21;;;;;;;3.47;0.82;;;;;;;;;;5073935;28;20029;-43
2021/01/04 07:42:02;;;;;;;3.97;1.08;;;;;;;;;;5073477;28;20037;-40
2021/01/04 07:44:41;;;;;;;4.23;0.80;;;;;;;;;;5073804;28;20541;-45
2021/01/04 07:47:08;;;;;;;8.07;1.30;;;;;;;;;;5073782;28;20031;-45
2021/01/04 07:49:47;;;;;;;4.22;0.88;;;;;;;;;;5073509;28;20107;-42
2021/01/04 07:52:20;;;;;;;6.95;1.25;;;;;;;;;;5072086;28;20044;-42
2021/01/04 07:54:50;;;;;;;5.03;1.08;;;;;;;;;;5073470;28;20027;-42
2021/01/04 07:57:45;;;;;;;5.28;1.08;;;;;;;;;;5073246;28;20361;-42
2021/01/04 08:00:18;;;;;;;8.65;1.50;;;;;;;;;;5073151;28;20028;-41
2021/01/04 08:03:03;;;;;;;5.68;1.45;;;;;;;;;;5073266;28;20103;-42
2021/01/04 08:05:41;;;;;;;3.15;1.10;;;;;;;;;;5073409;28;20016;-43
2021/01/04 08:08:17;;;;;;;4.15;0.98;;;;;;;;;;5073436;28;20025;-40
2021/01/04 08:10:44;;;;;;;2.47;0.80;;;;;;;;;;5072997;28;20082;-42
2021/01/04 08:13:14;;;;;;;4.43;0.80;;;;;;;;;;5073079;28;20062;-43
2021/01/04 08:15:47;;;;;;;4.80;1.65;;;;;;;;;;5073126;28;20028;-42
2021/01/04 08:18:17;;;;;;;6.00;1.13;;;;;;;;;;5073230;28;20025;-41
2021/01/04 08:21:04;;;;;;;5.70;0.90;;;;;;;;;;5072796;28;20039;-45
2021/01/04 08:23:46;;;;;;;4.80;1.08;;;;;;;;;;5072786;28;20450;-41
2021/01/04 08:26:16;;;;;;;8.00;2.03;;;;;;;;;;5072819;28;20500;-41
2021/01/04 08:28:43;;;;;;;5.75;1.15;;;;;;;;;;5072875;28;20028;-41
2021/01/04 08:31:16;;;;;;;7.97;1.63;;;;;;;;;;5072968;28;20025;-41
2021/01/04 08:33:48;;;;;;;3.88;1.30;;;;;;;;;;5072841;28;20016;-41
2021/01/04 08:36:20;;;;;;;5.65;1.30;;;;;;;;;;5072676;28;20036;-41
2021/01/04 08:38:47;;;;;;;3.35;0.85;;;;;;;;;;5072653;28;20032;-41
2021/01/04 08:41:17;;;;;;;2.80;0.63;;;;;;;;;;5072390;28;20396;-42
2021/01/04 08:43:45;;;;;;;3.00;0.77;;;;;;;;;;5072762;28;20487;-40
2021/01/04 08:46:14;;;;;;;5.45;1.58;;;;;;;;;;5072523;28;20029;-41
2021/01/04 08:48:42;;;;;;;4.93;1.40;;;;;;;;;;5072216;28;20388;-41
2021/01/04 08:51:14;;;;;;;4.50;0.90;;;;;;;;;;5072225;28;20020;-41
2021/01/04 08:53:55;;;;;;;5.93;0.90;;;;;;;;;;5072596;28;20021;-41
2021/01/04 08:56:22;;;;;;;4.85;0.90;;;;;;;;;;5072530;28;20021;-43
2021/01/04 08:58:50;;;;;;;5.75;1.20;;;;;;;;;;5072389;28;20090;-43
2021/01/04 09:01:17;;;;;;;7.13;1.20;;;;;;;;;;5072536;28;20021;-40
2021/01/04 09:03:44;;;;;;;4.63;1.35;;;;;;;;;;5072449;28;20372;-41
2021/01/04 09:06:31;;;;;;;8.90;1.92;;;;;;;;;;5072432;28;20096;-42
2021/01/04 09:09:18;;;;;;;6.65;1.75;;;;;;;;;;5072379;28;20027;-41
2021/01/04 09:12:05;;;;;;;5.60;1.38;;;;;;;;;;5072257;28;20036;-45
2021/01/04 09:14:52;;;;;;;5.60;1.10;;;;;;;;;;5072324;28;20024;-42
2021/01/04 09:17:34;;;;;;;7.25;1.42;;;;;;;;;;5041151;28;20094;-43
2021/01/04 09:20:21;;;;;;;6.95;1.55;;;;;;;;;;5072117;28;20040;-41
2021/01/04 09:23:03;;;;;;;5.95;1.42;;;;;;;;;;5041313;28;20130;-41
2021/01/04 09:25:30;;;;;;;;;;;;;;;;;;5072721;28;20047;-42
2021/01/04 09:27:57;;;;;;;6.78;1.65;;;;;;;;;;5072177;28;19912;-43
2021/01/04 09:30:25;;;;;;;8.45;2.30;;;;;;;;;;5072085;28;20017;-41
2021/01/04 09:33:02;;;;;;;11.55;2.17;;;;;;;;;;5072105;28;20021;-56
2021/01/04 09:35:29;;;;;;;6.28;2.00;;;;;;;;;;5072273;28;20107;-55
2021/01/04 09:38:22;;;;;;;10.13;1.92;;;;;;;;;;5072355;28;20099;-56
2021/01/04 09:40:59;;;;;;;6.25;1.60;;;;;;;;;;5069421;28;20408;-55
2021/01/04 09:43:30;;;;;;;5.18;1.50;;;;;;;;;;5072075;28;20082;-56
2021/01/04 09:46:15;;;;;;;8.85;1.65;;;;;;;;;;5071920;28;20044;-54
2021/01/04 09:48:46;;;;;;;5.97;1.67;;;;;;;;;;5072062;28;20503;-52
2021/01/04 09:51:15;;;;;;;5.30;1.42;;;;;;;;;;5071762;28;20020;-56
2021/01/04 09:53:44;;;;;;;7.28;1.27;;;;;;;;;;5072120;28;20029;-56
2021/01/04 09:56:15;;;;;;;10.13;1.88;;;;;;;;;;5071734;28;20028;-53
2021/01/04 09:58:42;;;;;;;4.47;1.33;;;;;;;;;;5071803;28;20430;-55
2021/01/04 10:01:09;;;;;;;7.90;1.52;;;;;;;;;;5075213;28;20051;-55
2021/01/04 10:03:36;;;;;;;7.82;1.77;;;;;;;;;;5075797;28;20090;-56
2021/01/04 10:06:06;;;;;;;5.03;1.27;;;;;;;;;;5075495;28;20044;-50
2021/01/04 10:08:33;;;;;;;3.65;1.20;;;;;;;;;;5075549;28;20017;-56
2021/01/04 10:11:04;;;;;;;5.82;1.75;;;;;;;;;;5075450;28;20024;-56
2021/01/04 10:13:33;;;;;;;3.88;1.15;;;;;;;;;;5075366;28;20480;-53
2021/01/04 10:16:02;;;;;;;6.78;1.50;;;;;;;;;;5075005;28;20029;-56
2021/01/04 10:18:32;;;;;;;8.27;1.50;;;;;;;;;;5075292;28;20028;-55
2021/01/04 10:20:59;;;;;;;8.05;1.35;;;;;;;;;;5075359;28;20518;-53
2021/01/04 10:23:26;;;;;;;4.68;1.30;;;;;;;;;;5075137;28;20448;-57
2021/01/04 10:25:56;;;;;;;3.92;1.40;;;;;;;;;;5075139;28;20085;-54
2021/01/04 10:28:23;;;;;;;7.95;1.35;;;;;;;;;;5075302;28;20021;-54
2021/01/04 10:30:50;;;;;;;5.68;1.20;;;;;;;;;;5075074;28;20481;-56
2021/01/04 10:33:25;;;;;;;6.90;1.65;;;;;;;;;;5075041;28;20059;-42
2021/01/04 10:36:24;;;;;;;4.78;1.70;;;;;;;;;;5074908;28;20073;-41
2021/01/04 10:39:00;;;;;;;5.70;1.40;;;;;;;;;;5041212;28;20107;-41
2021/01/04 10:41:29;;;;;;;7.18;1.42;;;;;;;;;;5074843;28;20515;-56
2021/01/04 10:44:11;;;;;;;6.85;1.77;;;;;;;;;;5075023;28;20036;-53
2021/01/04 10:46:40;;;;;;;4.40;1.20;;;;;;;;;;5074561;28;20021;-55
2021/01/04 10:49:11;;;;;;;6.80;1.35;;;;;;;;;;5074663;28;20480;-55
2021/01/04 10:51:41;;;;;;;4.72;1.63;;;;;;;;;;5074667;28;20029;-41
2021/01/04 10:54:15;;;;;;;6.15;1.50;;;;;;;;;;5074867;28;20020;-42
2021/01/04 10:56:44;;;;;;;4.22;1.60;;;;;;;;;;5074514;28;20039;-41
2021/01/04 10:59:14;;;;;;;6.22;1.67;;;;;;;;;;5074447;28;20423;-42
2021/01/04 11:01:43;;;;;;;6.50;1.45;;;;;;;;;;5074670;28;20020;-41
2021/01/04 11:04:14;;;;;;;6.97;1.73;;;;;;;;;;5074604;28;20013;-42
2021/01/04 11:06:42;;;;;;;4.50;1.20;;;;;;;;;;5074428;28;20077;-43
2021/01/04 11:09:12;;;;;;;7.10;1.13;;;;;;;;;;5074412;28;20084;-41
2021/01/04 11:11:42;;;;;;;6.03;1.50;;;;;;;;;;5074018;28;20385;-42
2021/01/04 11:14:15;;;;;;;6.82;1.42;;;;;;;;;;5074202;28;20066;-41
2021/01/04 11:16:44;;;;;;;6.35;1.25;;;;;;;;;;5074086;28;20577;-44
2021/01/04 11:19:11;;;;;;;5.70;1.15;;;;;;;;;;5074114;28;20028;-41
2021/01/04 11:21:39;;;;;;;6.55;2.10;;;;;;;;;;5074236;28;20024;-44
2021/01/04 11:24:07;;;;;;;10.07;1.83;;;;;;;;;;5074154;28;20074;-42
2021/01/04 11:26:34;;;;;;;6.88;1.65;;;;;;;;;;5073888;28;20044;-44
2021/01/04 11:29:01;;;;;;;5.85;1.52;;;;;;;;;;5074266;28;20033;-41
2021/01/04 11:31:33;;;;;;;5.07;1.40;;;;;;;;;;5073873;28;20047;-41
2021/01/04 11:34:01;;;;;;;6.00;1.20;;;;;;;;;;5073789;28;20028;-45
2021/01/04 11:36:28;;;;;;;3.50;1.25;;;;;;;;;;5073911;28;20520;-42
2021/01/04 11:38:55;;;;;;;2.65;1.17;;;;;;;;;;5073750;28;20025;-41
2021/01/04 11:41:23;;;;;;;5.15;1.20;;;;;;;;;;5073389;28;20043;-41
2021/01/04 11:43:50;;;;;;;7.68;1.52;;;;;;;;;;5073917;28;20027;-42
2021/01/04 11:46:17;;;;;;;6.65;1.73;;;;;;;;;;5073483;28;20044;-41
2021/01/04 11:48:44;;;;;;;8.02;1.88;;;;;;;;;;5073743;28;20031;-41
2021/01/04 11:51:15;;;;;;;6.72;1.52;;;;;;;;;;5073584;28;20087;-40
2021/01/04 11:53:42;;;;;;;4.90;1.73;;;;;;;;;;5073505;28;20506;-41
2021/01/04 11:56:09;;;;;;;5.45;1.33;;;;;;;;;;5073203;28;20052;-41
2021/01/04 11:58:39;;;;;;;7.32;1.80;;;;;;;;;;5073274;28;20028;-42
2021/01/04 12:01:07;;;;;;;7.13;1.55;;;;;;;;;;5073489;28;20026;-41
2021/01/04 12:03:33;;;;;;;4.88;1.40;;;;;;;;;;5073295;28;20036;-41
2021/01/04 12:06:00;;;;;;;4.43;1.30;;;;;;;;;;5073340;28;20020;-42
2021/01/04 12:08:27;;;;;;;5.00;1.60;;;;;;;;;;5077061;28;20135;-40
2021/01/04 12:10:55;;;;;;;3.67;1.02;;;;;;;;;;5072492;28;20552;-40
2021/01/04 12:13:22;;;;;;;4.40;1.25;;;;;;;;;;5072320;28;20111;-40
2021/01/04 12:15:49;;;;;;;9.00;2.08;;;;;;;;;;5072341;28;20102;-39
2021/01/04 12:18:15;;;;;;;5.10;1.50;;;;;;;;;;5072105;28;20484;-47
2021/01/04 12:20:42;;;;;;;13.32;2.00;;;;;;;;;;5071808;28;20039;-40
2021/01/04 12:23:10;;;;;;;9.05;2.50;;;;;;;;;;5071063;28;20016;-42
2021/01/04 12:25:37;;;;;;;9.25;1.98;;;;;;;;;;5071838;28;20033;-39
2021/01/04 12:28:04;;;;;;;6.90;1.95;;;;;;;;;;5071759;28;20028;-41
2021/01/04 12:30:33;;;;;;;4.88;1.40;;;;;;;;;;5075256;28;20016;-41
2021/01/04 12:33:00;;;;;;;5.00;1.50;;;;;;;;;;5076526;28;20043;-45
2021/01/04 12:35:28;;;;;;;5.80;1.55;;;;;;;;;;5079524;28;20031;-40
2021/01/04 12:37:55;;;;;;;4.55;1.27;;;;;;;;;;5071812;28;20025;-40
2021/01/04 12:40:26;;;;;;;5.40;1.50;;;;;;;;;;5071239;28;20044;-41
2021/01/04 12:42:54;;;;;;;7.05;1.83;;;;;;;;;;5071256;28;20060;-40
2021/01/04 12:45:21;;;;;;;6.65;1.75;;;;;;;;;;5071823;28;20020;-39
2021/01/04 12:47:49;;;;;;;5.60;1.23;;;;;;;;;;5071893;28;20099;-44
2021/01/04 12:50:16;;;;;;;4.65;1.55;;;;;;;;;;5071856;28;20043;-40
2021/01/04 12:52:43;;;;;;;10.48;2.28;;;;;;;;;;5071637;28;20016;-40
2021/01/04 12:55:10;;;;;;;9.40;2.28;;;;;;;;;;5071936;28;20024;-45
2021/01/04 12:57:37;;;;;;;5.65;1.95;;;;;;;;;;5071796;28;20025;-40
2021/01/04 13:00:06;;;;;;;11.23;2.78;;;;;;;;;;5071697;28;20021;-40
2021/01/04 13:02:33;;;;;;;5.75;1.90;;;;;;;;;;5071947;28;20081;-42
2021/01/04 13:05:00;;;;;;;7.68;1.55;;;;;;;;;;5071620;28;20019;-41
2021/01/04 13:07:29;;;;;;;4.75;1.60;;;;;;;;;;5071516;28;20013;-39
2021/01/04 13:09:56;;;;;;;7.55;2.20;;;;;;;;;;5071796;28;20028;-39
2021/01/04 13:12:26;;;;;;;7.75;2.13;;;;;;;;;;5071621;28;20016;-60
2021/01/04 13:14:53;;;;;;;7.70;1.42;;;;;;;;;;5071960;28;20032;-59
2021/01/04 13:17:19;;;;;;;4.65;1.50;;;;;;;;;;5071471;28;20476;-58
2021/01/04 13:19:46;;;;;;;5.40;1.48;;;;;;;;;;5071329;28;20111;-59
2021/01/04 13:22:13;;;;;;;6.20;1.42;;;;;;;;;;5071514;28;20368;-59
2021/01/04 13:24:41;;;;;;;5.75;1.73;;;;;;;;;;5056397;28;20059;-59
2021/01/04 13:27:08;;;;;;;7.57;1.60;;;;;;;;;;5072142;28;20418;-56
2021/01/04 13:29:35;;;;;;;5.60;1.30;;;;;;;;;;5071236;28;20016;-59
2021/01/04 13:32:06;;;;;;;6.47;1.83;;;;;;;;;;5071413;28;20032;-54
2021/01/04 13:34:34;;;;;;;6.13;1.38;;;;;;;;;;5073705;28;20029;-41
2021/01/04 13:37:01;;;;;;;3.92;1.45;;;;;;;;;;5075452;28;20102;-40
2021/01/04 13:39:28;;;;;;;2.97;1.02;;;;;;;;;;5085802;28;20395;-40
2021/01/04 13:41:57;;;;;;;5.72;1.63;;;;;;;;;;5075064;28;20045;-40
2021/01/04 13:44:24;;;;;;;5.57;1.70;;;;;;;;;;5075090;28;20426;-40
2021/01/04 13:46:52;;;;;;;5.82;1.38;;;;;;;;;;5074876;28;20111;-40
2021/01/04 13:49:19;;;;;;;5.88;1.70;;;;;;;;;;5074799;28;20403;-40
2021/01/04 13:51:49;;;;;;;6.40;1.85;;;;;;;;;;5074797;28;20028;-41
2021/01/04 13:54:16;;;;;;;4.85;1.50;;;;;;;;;;5085781;28;20017;-43
2021/01/04 13:56:51;;;;;;;5.25;1.30;;;;;;;;;;5076454;28;20020;-41
2021/01/04 13:59:18;;;;;;;5.03;1.55;;;;;;;;;;5079914;28;20031;-41
2021/01/04 14:01:45;;;;;;;4.47;1.30;;;;;;;;;;5076593;28;20035;-41
2021/01/04 14:04:13;;;;;;;3.83;0.98;;;;;;;;;;5074414;28;20021;-40
2021/01/04 14:06:41;;;;;;;6.50;1.10;;;;;;;;;;5074504;28;20024;-40
2021/01/04 14:09:08;;;;;;;3.25;1.00;;;;;;;;;;5057815;28;20426;-39
2021/01/04 14:11:36;;;;;;;3.95;1.38;;;;;;;;;;5074281;28;20024;-41
2021/01/04 14:14:05;;;;;;;6.93;1.30;;;;;;;;;;5074105;28;20503;-42
2021/01/04 14:16:33;;;;;;;4.15;1.10;;;;;;;;;;5074300;28;20024;-42
2021/01/04 14:19:00;;;;;;;2.92;1.00;;;;;;;;;;5074225;28;20039;-40
2021/01/04 14:21:28;;;;;;;7.18;1.67;;;;;;;;;;5085319;28;20029;-41
2021/01/04 14:23:55;;;;;;;3.03;0.90;;;;;;;;;;5074421;28;20446;-40
2021/01/04 14:26:25;;;;;;;5.45;1.65;;;;;;;;;;5073999;28;20074;-42
2021/01/04 14:28:52;;;;;;;3.75;1.20;;;;;;;;;;5074424;28;20055;-41
2021/01/04 14:31:19;;;;;;;4.55;1.10;;;;;;;;;;5074265;28;20024;-40
2021/01/04 14:33:47;;;;;;;5.97;1.63;;;;;;;;;;5074405;28;20753;-41
2021/01/04 14:36:14;;;;;;;7.68;1.50;;;;;;;;;;5074251;28;20024;-41
2021/01/04 14:38:41;;;;;;;7.28;1.50;;;;;;;;;;5078824;28;20109;-42
2021/01/04 14:41:09;;;;;;;5.15;1.60;;;;;;;;;;5094309;28;20410;-41
2021/01/04 14:43:36;;;;;;;4.43;1.58;;;;;;;;;;5093362;28;20024;-46
2021/01/04 14:46:04;;;;;;;4.72;1.23;;;;;;;;;;5073127;28;20027;-40
2021/01/04 14:48:31;;;;;;;154.30;8.52;;;;;;;;;;5072741;28;20041;-42
2021/01/04 14:50:58;;;;;;;19.33;2.00;;;;;;;;;;5076284;28;20515;-49
2021/01/04 14:53:25;;;;;;;20.92;2.67;;;;;;;;;;5073518;28;20635;-42
2021/01/04 14:55:52;;;;;;;9.57;2.53;;;;;;;;;;5073544;28;20062;-44
2021/01/04 14:58:19;;;;;;;19.00;2.40;;;;;;;;;;5073208;28;20024;-43
2021/01/04 15:00:46;;;;;;;13.20;2.53;;;;;;;;;;5066355;28;20385;-43
2021/01/04 15:03:13;;;;;;;11.50;1.73;;;;;;;;;;5073192;28;20009;-42
2021/01/04 15:05:40;;;;;;;9.25;1.67;;;;;;;;;;5073099;28;20020;-45
2021/01/04 15:08:07;;;;;;;13.20;2.17;;;;;;;;;;5074848;28;20033;-48
2021/01/04 15:10:34;;;;;;;13.13;2.78;;;;;;;;;;5078347;28;20031;-55
2021/01/04 15:13:01;;;;;;;9.85;2.50;;;;;;;;;;5072527;28;20021;-45